sensor_id;sensor_type;location;lat;lon;timestamp;P1;durP1;ratioP1;P2;durP2;ratioP2
23573;SDS011;11965;53.640;10.050;2023-06-14T00:01:07;4.69;;;4.69;;
23573;SDS011;11965;53.640;10.050;2023-06-14T00:03:37;4.28;;;4.28;;
23573;SDS011;11965;53.640;10.050;2023-06-14T00:06:05;4.28;;;4.28;;
23573;SDS011;11965;53.640;10.050;2023-06-14T00:08:32;4.72;;;4.72;;
23573;SDS011;11965;53.640;10.050;2023-06-14T00:11:00;4.71;;;4.70;;
23573;SDS011;11965;53.640;10.050;2023-06-14T00:13:26;5.00;;;4.98;;
23573;SDS011;11965;53.640;10.050;2023-06-14T00:15:53;4.82;;;4.82;;
23573;SDS011;11965;53.640;10.050;2023-06-14T00:18:20;4.58;;;4.58;;
23573;SDS011;11965;53.640;10.050;2023-06-14T00:20:49;4.67;;;4.67;;
23573;SDS011;11965;53.640;10.050;2023-06-14T00:23:18;4.59;;;4.59;;
23573;SDS011;11965;53.640;10.050;2023-06-14T00:25:45;4.71;;;4.71;;
23573;SDS011;11965;53.640;10.050;2023-06-14T00:28:12;4.72;;;4.72;;
23573;SDS011;11965;53.640;10.050;2023-06-14T00:30:40;4.85;;;4.85;;
23573;SDS011;11965;53.640;10.050;2023-06-14T00:33:09;4.70;;;4.70;;
23573;SDS011;11965;53.640;10.050;2023-06-14T00:35:36;4.83;;;4.83;;
23573;SDS011;11965;53.640;10.050;2023-06-14T00:38:03;4.45;;;4.45;;
23573;SDS011;11965;53.640;10.050;2023-06-14T00:40:31;4.39;;;4.39;;
23573;SDS011;11965;53.640;10.050;2023-06-14T00:43:00;4.83;;;4.83;;
23573;SDS011;11965;53.640;10.050;2023-06-14T00:45:26;4.73;;;4.73;;
23573;SDS011;11965;53.640;10.050;2023-06-14T00:47:53;4.81;;;4.81;;
23573;SDS011;11965;53.640;10.050;2023-06-14T00:50:22;4.68;;;4.68;;
23573;SDS011;11965;53.640;10.050;2023-06-14T00:52:50;4.78;;;4.78;;
23573;SDS011;11965;53.640;10.050;2023-06-14T00:55:17;4.67;;;4.67;;
23573;SDS011;11965;53.640;10.050;2023-06-14T00:57:45;4.57;;;4.57;;
23573;SDS011;11965;53.640;10.050;2023-06-14T01:00:13;4.65;;;4.65;;
23573;SDS011;11965;53.640;10.050;2023-06-14T01:02:40;4.63;;;4.63;;
23573;SDS011;11965;53.640;10.050;2023-06-14T01:05:08;4.71;;;4.71;;
23573;SDS011;11965;53.640;10.050;2023-06-14T01:07:45;4.85;;;4.85;;
23573;SDS011;11965;53.640;10.050;2023-06-14T01:10:31;4.63;;;4.63;;
23573;SDS011;11965;53.640;10.050;2023-06-14T01:13:07;4.88;;;4.88;;
23573;SDS011;11965;53.640;10.050;2023-06-14T01:15:39;4.89;;;4.89;;
23573;SDS011;11965;53.640;10.050;2023-06-14T01:18:09;4.97;;;4.97;;
23573;SDS011;11965;53.640;10.050;2023-06-14T01:20:43;4.89;;;4.89;;
23573;SDS011;11965;53.640;10.050;2023-06-14T01:23:16;5.18;;;5.18;;
23573;SDS011;11965;53.640;10.050;2023-06-14T01:25:43;4.97;;;4.97;;
23573;SDS011;11965;53.640;10.050;2023-06-14T01:28:11;4.81;;;4.81;;
23573;SDS011;11965;53.640;10.050;2023-06-14T01:30:40;5.12;;;5.12;;
23573;SDS011;11965;53.640;10.050;2023-06-14T01:33:10;4.91;;;4.91;;
23573;SDS011;11965;53.640;10.050;2023-06-14T01:35:40;4.97;;;4.97;;
23573;SDS011;11965;53.640;10.050;2023-06-14T01:38:08;4.75;;;4.75;;
23573;SDS011;11965;53.640;10.050;2023-06-14T01:40:37;5.05;;;5.05;;
23573;SDS011;11965;53.640;10.050;2023-06-14T01:43:06;5.11;;;5.11;;
23573;SDS011;11965;53.640;10.050;2023-06-14T01:45:35;4.95;;;4.94;;
23573;SDS011;11965;53.640;10.050;2023-06-14T01:48:04;4.96;;;4.95;;
23573;SDS011;11965;53.640;10.050;2023-06-14T01:50:32;5.22;;;5.22;;
23573;SDS011;11965;53.640;10.050;2023-06-14T01:52:59;4.85;;;4.85;;
23573;SDS011;11965;53.640;10.050;2023-06-14T01:55:26;5.19;;;5.18;;
23573;SDS011;11965;53.640;10.050;2023-06-14T01:57:54;5.27;;;5.27;;
23573;SDS011;11965;53.640;10.050;2023-06-14T02:00:21;5.22;;;5.22;;
23573;SDS011;11965;53.640;10.050;2023-06-14T02:02:51;5.08;;;5.08;;
23573;SDS011;11965;53.640;10.050;2023-06-14T02:05:18;5.14;;;5.14;;
23573;SDS011;11965;53.640;10.050;2023-06-14T02:07:45;5.04;;;5.04;;
23573;SDS011;11965;53.640;10.050;2023-06-14T02:10:15;5.28;;;5.28;;
23573;SDS011;11965;53.640;10.050;2023-06-14T02:12:42;5.51;;;5.51;;
23573;SDS011;11965;53.640;10.050;2023-06-14T02:15:14;5.34;;;5.33;;
23573;SDS011;11965;53.640;10.050;2023-06-14T02:17:44;5.30;;;5.25;;
23573;SDS011;11965;53.640;10.050;2023-06-14T02:20:12;5.58;;;5.58;;
23573;SDS011;11965;53.640;10.050;2023-06-14T02:22:39;5.73;;;5.73;;
23573;SDS011;11965;53.640;10.050;2023-06-14T02:25:07;5.83;;;5.83;;
23573;SDS011;11965;53.640;10.050;2023-06-14T02:27:34;5.74;;;5.74;;
23573;SDS011;11965;53.640;10.050;2023-06-14T02:30:03;5.90;;;5.90;;
23573;SDS011;11965;53.640;10.050;2023-06-14T02:32:33;5.73;;;5.73;;
23573;SDS011;11965;53.640;10.050;2023-06-14T02:35:00;6.01;;;6.01;;
23573;SDS011;11965;53.640;10.050;2023-06-14T02:37:27;6.03;;;6.03;;
23573;SDS011;11965;53.640;10.050;2023-06-14T02:39:55;5.86;;;5.86;;
23573;SDS011;11965;53.640;10.050;2023-06-14T02:42:22;5.94;;;5.94;;
23573;SDS011;11965;53.640;10.050;2023-06-14T02:44:49;6.34;;;6.34;;
23573;SDS011;11965;53.640;10.050;2023-06-14T02:47:17;5.69;;;5.69;;
23573;SDS011;11965;53.640;10.050;2023-06-14T02:49:45;5.93;;;5.93;;
23573;SDS011;11965;53.640;10.050;2023-06-14T02:52:14;6.23;;;6.23;;
23573;SDS011;11965;53.640;10.050;2023-06-14T02:54:40;6.24;;;6.24;;
23573;SDS011;11965;53.640;10.050;2023-06-14T02:57:08;6.01;;;6.01;;
23573;SDS011;11965;53.640;10.050;2023-06-14T02:59:36;5.81;;;5.81;;
23573;SDS011;11965;53.640;10.050;2023-06-14T03:02:04;5.90;;;5.90;;
23573;SDS011;11965;53.640;10.050;2023-06-14T03:04:32;6.31;;;6.31;;
23573;SDS011;11965;53.640;10.050;2023-06-14T03:07:04;5.82;;;5.82;;
23573;SDS011;11965;53.640;10.050;2023-06-14T03:09:35;6.40;;;6.40;;
23573;SDS011;11965;53.640;10.050;2023-06-14T03:12:04;6.50;;;6.50;;
23573;SDS011;11965;53.640;10.050;2023-06-14T03:14:32;6.30;;;6.30;;
23573;SDS011;11965;53.640;10.050;2023-06-14T03:17:00;6.23;;;6.23;;
23573;SDS011;11965;53.640;10.050;2023-06-14T03:19:28;6.08;;;6.08;;
23573;SDS011;11965;53.640;10.050;2023-06-14T03:21:55;5.99;;;5.99;;
23573;SDS011;11965;53.640;10.050;2023-06-14T03:24:26;6.33;;;6.33;;
23573;SDS011;11965;53.640;10.050;2023-06-14T03:26:55;6.02;;;6.02;;
23573;SDS011;11965;53.640;10.050;2023-06-14T03:29:27;6.43;;;6.43;;
23573;SDS011;11965;53.640;10.050;2023-06-14T03:31:58;6.27;;;6.27;;
23573;SDS011;11965;53.640;10.050;2023-06-14T03:34:33;6.45;;;6.45;;
23573;SDS011;11965;53.640;10.050;2023-06-14T03:37:01;6.47;;;6.47;;
23573;SDS011;11965;53.640;10.050;2023-06-14T03:39:30;6.35;;;6.35;;
23573;SDS011;11965;53.640;10.050;2023-06-14T03:41:59;6.18;;;6.17;;
23573;SDS011;11965;53.640;10.050;2023-06-14T03:44:26;6.22;;;6.19;;
23573;SDS011;11965;53.640;10.050;2023-06-14T03:46:53;6.05;;;5.96;;
23573;SDS011;11965;53.640;10.050;2023-06-14T03:49:21;6.11;;;6.09;;
23573;SDS011;11965;53.640;10.050;2023-06-14T03:51:48;5.89;;;5.81;;
23573;SDS011;11965;53.640;10.050;2023-06-14T03:54:17;6.13;;;6.13;;
23573;SDS011;11965;53.640;10.050;2023-06-14T03:56:47;5.99;;;5.99;;
23573;SDS011;11965;53.640;10.050;2023-06-14T03:59:14;5.67;;;5.67;;
23573;SDS011;11965;53.640;10.050;2023-06-14T04:01:42;5.24;;;5.24;;
23573;SDS011;11965;53.640;10.050;2023-06-14T04:04:10;6.09;;;6.09;;
23573;SDS011;11965;53.640;10.050;2023-06-14T04:06:37;5.98;;;5.98;;
23573;SDS011;11965;53.640;10.050;2023-06-14T04:09:06;5.29;;;5.29;;
23573;SDS011;11965;53.640;10.050;2023-06-14T04:11:34;5.89;;;5.89;;
23573;SDS011;11965;53.640;10.050;2023-06-14T04:14:03;5.77;;;5.77;;
23573;SDS011;11965;53.640;10.050;2023-06-14T04:16:30;6.22;;;6.22;;
23573;SDS011;11965;53.640;10.050;2023-06-14T04:18:59;5.54;;;5.54;;
23573;SDS011;11965;53.640;10.050;2023-06-14T04:21:27;5.60;;;5.60;;
23573;SDS011;11965;53.640;10.050;2023-06-14T04:23:56;5.83;;;5.83;;
23573;SDS011;11965;53.640;10.050;2023-06-14T04:26:28;5.75;;;5.73;;
23573;SDS011;11965;53.640;10.050;2023-06-14T04:28:56;5.27;;;5.26;;
23573;SDS011;11965;53.640;10.050;2023-06-14T04:31:29;5.38;;;5.38;;
23573;SDS011;11965;53.640;10.050;2023-06-14T04:34:00;5.24;;;5.24;;
23573;SDS011;11965;53.640;10.050;2023-06-14T04:36:31;5.47;;;5.47;;
23573;SDS011;11965;53.640;10.050;2023-06-14T04:39:00;5.14;;;5.14;;
23573;SDS011;11965;53.640;10.050;2023-06-14T04:41:29;5.55;;;5.55;;
23573;SDS011;11965;53.640;10.050;2023-06-14T04:43:57;5.58;;;5.58;;
23573;SDS011;11965;53.640;10.050;2023-06-14T04:46:29;5.54;;;5.53;;
23573;SDS011;11965;53.640;10.050;2023-06-14T04:48:57;5.10;;;5.05;;
23573;SDS011;11965;53.640;10.050;2023-06-14T04:51:27;5.33;;;5.31;;
23573;SDS011;11965;53.640;10.050;2023-06-14T04:53:56;5.29;;;5.29;;
23573;SDS011;11965;53.640;10.050;2023-06-14T04:56:24;5.49;;;5.49;;
23573;SDS011;11965;53.640;10.050;2023-06-14T04:58:52;5.24;;;5.24;;
23573;SDS011;11965;53.640;10.050;2023-06-14T05:01:20;5.31;;;5.31;;
23573;SDS011;11965;53.640;10.050;2023-06-14T05:03:49;5.77;;;5.77;;
23573;SDS011;11965;53.640;10.050;2023-06-14T05:06:16;5.70;;;5.70;;
23573;SDS011;11965;53.640;10.050;2023-06-14T05:08:43;5.58;;;5.58;;
23573;SDS011;11965;53.640;10.050;2023-06-14T05:11:10;5.58;;;5.58;;
23573;SDS011;11965;53.640;10.050;2023-06-14T05:13:37;5.50;;;5.50;;
23573;SDS011;11965;53.640;10.050;2023-06-14T05:16:05;5.10;;;5.10;;
23573;SDS011;11965;53.640;10.050;2023-06-14T05:18:32;5.77;;;5.77;;
23573;SDS011;11965;53.640;10.050;2023-06-14T05:21:02;5.46;;;5.46;;
23573;SDS011;11965;53.640;10.050;2023-06-14T05:23:29;5.53;;;5.53;;
23573;SDS011;11965;53.640;10.050;2023-06-14T05:25:56;5.53;;;5.53;;
23573;SDS011;11965;53.640;10.050;2023-06-14T05:28:23;5.67;;;5.67;;
23573;SDS011;11965;53.640;10.050;2023-06-14T05:30:50;5.83;;;5.83;;
23573;SDS011;11965;53.640;10.050;2023-06-14T05:33:17;5.79;;;5.79;;
23573;SDS011;11965;53.640;10.050;2023-06-14T05:35:44;5.72;;;5.72;;
23573;SDS011;11965;53.640;10.050;2023-06-14T05:38:13;5.60;;;5.60;;
23573;SDS011;11965;53.640;10.050;2023-06-14T05:40:40;5.45;;;5.45;;
23573;SDS011;11965;53.640;10.050;2023-06-14T05:43:07;5.68;;;5.68;;
23573;SDS011;11965;53.640;10.050;2023-06-14T05:45:34;5.52;;;5.52;;
23573;SDS011;11965;53.640;10.050;2023-06-14T05:48:00;5.46;;;5.46;;
23573;SDS011;11965;53.640;10.050;2023-06-14T05:50:27;5.60;;;5.60;;
23573;SDS011;11965;53.640;10.050;2023-06-14T05:52:54;5.65;;;5.65;;
23573;SDS011;11965;53.640;10.050;2023-06-14T05:55:22;5.73;;;5.73;;
23573;SDS011;11965;53.640;10.050;2023-06-14T05:57:50;5.63;;;5.63;;
23573;SDS011;11965;53.640;10.050;2023-06-14T06:00:17;5.34;;;5.34;;
23573;SDS011;11965;53.640;10.050;2023-06-14T06:02:45;5.24;;;5.24;;
23573;SDS011;11965;53.640;10.050;2023-06-14T06:05:12;5.15;;;5.15;;
23573;SDS011;11965;53.640;10.050;2023-06-14T06:07:41;5.16;;;5.16;;
23573;SDS011;11965;53.640;10.050;2023-06-14T06:10:09;5.26;;;5.26;;
23573;SDS011;11965;53.640;10.050;2023-06-14T06:12:38;5.31;;;5.31;;
23573;SDS011;11965;53.640;10.050;2023-06-14T06:15:07;5.09;;;5.09;;
23573;SDS011;11965;53.640;10.050;2023-06-14T06:17:37;5.15;;;5.15;;
23573;SDS011;11965;53.640;10.050;2023-06-14T06:20:04;5.07;;;5.07;;
23573;SDS011;11965;53.640;10.050;2023-06-14T06:22:33;4.67;;;4.67;;
23573;SDS011;11965;53.640;10.050;2023-06-14T06:25:00;4.95;;;4.95;;
23573;SDS011;11965;53.640;10.050;2023-06-14T06:27:27;4.62;;;4.62;;
23573;SDS011;11965;53.640;10.050;2023-06-14T06:29:56;4.54;;;4.54;;
23573;SDS011;11965;53.640;10.050;2023-06-14T06:32:23;5.04;;;5.04;;
23573;SDS011;11965;53.640;10.050;2023-06-14T06:34:50;4.86;;;4.86;;
23573;SDS011;11965;53.640;10.050;2023-06-14T06:37:17;4.65;;;4.65;;
23573;SDS011;11965;53.640;10.050;2023-06-14T06:39:44;4.53;;;4.53;;
23573;SDS011;11965;53.640;10.050;2023-06-14T06:42:11;4.29;;;4.29;;
23573;SDS011;11965;53.640;10.050;2023-06-14T06:44:41;4.35;;;4.35;;
23573;SDS011;11965;53.640;10.050;2023-06-14T06:47:09;4.39;;;4.39;;
23573;SDS011;11965;53.640;10.050;2023-06-14T06:49:36;4.01;;;4.01;;
23573;SDS011;11965;53.640;10.050;2023-06-14T06:52:04;3.85;;;3.85;;
23573;SDS011;11965;53.640;10.050;2023-06-14T06:54:32;4.04;;;4.04;;
23573;SDS011;11965;53.640;10.050;2023-06-14T06:57:00;3.81;;;3.81;;
23573;SDS011;11965;53.640;10.050;2023-06-14T06:59:27;4.25;;;4.25;;
23573;SDS011;11965;53.640;10.050;2023-06-14T07:01:55;3.78;;;3.78;;
23573;SDS011;11965;53.640;10.050;2023-06-14T07:04:23;3.89;;;3.89;;
23573;SDS011;11965;53.640;10.050;2023-06-14T07:06:50;4.19;;;4.19;;
23573;SDS011;11965;53.640;10.050;2023-06-14T07:09:17;4.03;;;4.03;;
23573;SDS011;11965;53.640;10.050;2023-06-14T07:11:45;4.06;;;4.06;;
23573;SDS011;11965;53.640;10.050;2023-06-14T07:14:13;4.20;;;4.20;;
23573;SDS011;11965;53.640;10.050;2023-06-14T07:16:40;4.09;;;4.09;;
23573;SDS011;11965;53.640;10.050;2023-06-14T07:19:07;3.72;;;3.72;;
23573;SDS011;11965;53.640;10.050;2023-06-14T07:21:35;3.72;;;3.72;;
23573;SDS011;11965;53.640;10.050;2023-06-14T07:24:04;3.84;;;3.84;;
23573;SDS011;11965;53.640;10.050;2023-06-14T07:26:31;3.95;;;3.95;;
23573;SDS011;11965;53.640;10.050;2023-06-14T07:28:58;4.05;;;4.05;;
23573;SDS011;11965;53.640;10.050;2023-06-14T07:31:25;3.74;;;3.74;;
23573;SDS011;11965;53.640;10.050;2023-06-14T07:33:52;4.02;;;4.02;;
23573;SDS011;11965;53.640;10.050;2023-06-14T07:36:19;3.65;;;3.65;;
23573;SDS011;11965;53.640;10.050;2023-06-14T07:38:47;3.40;;;3.40;;
23573;SDS011;11965;53.640;10.050;2023-06-14T07:41:15;3.69;;;3.69;;
23573;SDS011;11965;53.640;10.050;2023-06-14T07:43:42;3.76;;;3.76;;
23573;SDS011;11965;53.640;10.050;2023-06-14T07:46:09;3.76;;;3.76;;
23573;SDS011;11965;53.640;10.050;2023-06-14T07:48:36;3.68;;;3.68;;
23573;SDS011;11965;53.640;10.050;2023-06-14T07:51:03;3.72;;;3.72;;
23573;SDS011;11965;53.640;10.050;2023-06-14T07:53:30;3.56;;;3.56;;
23573;SDS011;11965;53.640;10.050;2023-06-14T07:55:59;3.81;;;3.81;;
23573;SDS011;11965;53.640;10.050;2023-06-14T07:58:26;3.72;;;3.72;;
23573;SDS011;11965;53.640;10.050;2023-06-14T08:00:53;3.76;;;3.76;;
23573;SDS011;11965;53.640;10.050;2023-06-14T08:03:20;3.73;;;3.73;;
23573;SDS011;11965;53.640;10.050;2023-06-14T08:05:47;3.72;;;3.72;;
23573;SDS011;11965;53.640;10.050;2023-06-14T08:08:14;4.06;;;4.06;;
23573;SDS011;11965;53.640;10.050;2023-06-14T08:10:42;3.90;;;3.90;;
23573;SDS011;11965;53.640;10.050;2023-06-14T08:13:10;3.88;;;3.88;;
23573;SDS011;11965;53.640;10.050;2023-06-14T08:15:37;4.11;;;4.11;;
23573;SDS011;11965;53.640;10.050;2023-06-14T08:18:04;3.91;;;3.91;;
23573;SDS011;11965;53.640;10.050;2023-06-14T08:20:31;4.07;;;4.07;;
23573;SDS011;11965;53.640;10.050;2023-06-14T08:22:58;3.89;;;3.89;;
23573;SDS011;11965;53.640;10.050;2023-06-14T08:25:25;4.15;;;4.15;;
23573;SDS011;11965;53.640;10.050;2023-06-14T08:27:52;3.94;;;3.94;;
23573;SDS011;11965;53.640;10.050;2023-06-14T08:30:20;4.11;;;4.11;;
23573;SDS011;11965;53.640;10.050;2023-06-14T08:32:48;3.95;;;3.95;;
23573;SDS011;11965;53.640;10.050;2023-06-14T08:35:15;3.71;;;3.71;;
23573;SDS011;11965;53.640;10.050;2023-06-14T08:37:43;4.09;;;4.09;;
23573;SDS011;11965;53.640;10.050;2023-06-14T08:40:13;4.19;;;4.19;;
23573;SDS011;11965;53.640;10.050;2023-06-14T08:42:47;3.97;;;3.97;;
23573;SDS011;11965;53.640;10.050;2023-06-14T08:45:17;4.16;;;4.16;;
23573;SDS011;11965;53.640;10.050;2023-06-14T08:47:46;4.05;;;4.05;;
23573;SDS011;11965;53.640;10.050;2023-06-14T08:50:16;4.35;;;4.35;;
23573;SDS011;11965;53.640;10.050;2023-06-14T08:52:51;4.31;;;4.31;;
23573;SDS011;11965;53.640;10.050;2023-06-14T08:55:22;4.38;;;4.38;;
23573;SDS011;11965;53.640;10.050;2023-06-14T08:57:53;4.04;;;4.04;;
23573;SDS011;11965;53.640;10.050;2023-06-14T09:00:23;4.51;;;4.51;;
23573;SDS011;11965;53.640;10.050;2023-06-14T09:02:52;4.31;;;4.31;;
23573;SDS011;11965;53.640;10.050;2023-06-14T09:05:23;4.26;;;4.26;;
23573;SDS011;11965;53.640;10.050;2023-06-14T09:07:50;4.43;;;4.43;;
23573;SDS011;11965;53.640;10.050;2023-06-14T09:10:18;4.26;;;4.26;;
23573;SDS011;11965;53.640;10.050;2023-06-14T09:12:47;4.28;;;4.28;;
23573;SDS011;11965;53.640;10.050;2023-06-14T09:15:14;4.21;;;4.21;;
23573;SDS011;11965;53.640;10.050;2023-06-14T09:17:42;4.62;;;4.62;;
23573;SDS011;11965;53.640;10.050;2023-06-14T09:20:11;4.38;;;4.38;;
23573;SDS011;11965;53.640;10.050;2023-06-14T09:22:43;4.34;;;4.34;;
23573;SDS011;11965;53.640;10.050;2023-06-14T09:25:11;4.38;;;4.38;;
23573;SDS011;11965;53.640;10.050;2023-06-14T09:27:40;4.47;;;4.47;;
23573;SDS011;11965;53.640;10.050;2023-06-14T09:30:08;4.52;;;4.52;;
23573;SDS011;11965;53.640;10.050;2023-06-14T09:32:36;4.53;;;4.53;;
23573;SDS011;11965;53.640;10.050;2023-06-14T09:35:05;4.23;;;4.23;;
23573;SDS011;11965;53.640;10.050;2023-06-14T09:37:35;4.38;;;4.38;;
23573;SDS011;11965;53.640;10.050;2023-06-14T09:40:03;4.64;;;4.64;;
23573;SDS011;11965;53.640;10.050;2023-06-14T09:42:32;4.06;;;4.06;;
23573;SDS011;11965;53.640;10.050;2023-06-14T09:45:02;3.94;;;3.94;;
23573;SDS011;11965;53.640;10.050;2023-06-14T09:47:31;4.38;;;4.38;;
23573;SDS011;11965;53.640;10.050;2023-06-14T09:49:57;3.94;;;3.94;;
23573;SDS011;11965;53.640;10.050;2023-06-14T09:52:25;4.47;;;4.47;;
23573;SDS011;11965;53.640;10.050;2023-06-14T09:55:39;4.29;;;4.29;;
23573;SDS011;11965;53.640;10.050;2023-06-14T09:58:18;4.42;;;4.42;;
23573;SDS011;11965;53.640;10.050;2023-06-14T10:00:49;4.49;;;4.49;;
23573;SDS011;11965;53.640;10.050;2023-06-14T10:03:20;4.33;;;4.33;;
23573;SDS011;11965;53.640;10.050;2023-06-14T10:05:51;4.30;;;4.30;;
23573;SDS011;11965;53.640;10.050;2023-06-14T10:08:19;4.31;;;4.31;;
23573;SDS011;11965;53.640;10.050;2023-06-14T10:10:53;4.55;;;4.55;;
23573;SDS011;11965;53.640;10.050;2023-06-14T10:13:22;4.53;;;4.53;;
23573;SDS011;11965;53.640;10.050;2023-06-14T10:15:52;4.56;;;4.56;;
23573;SDS011;11965;53.640;10.050;2023-06-14T10:18:29;4.27;;;4.27;;
23573;SDS011;11965;53.640;10.050;2023-06-14T10:21:04;4.57;;;4.57;;
23573;SDS011;11965;53.640;10.050;2023-06-14T10:23:40;4.39;;;4.39;;
23573;SDS011;11965;53.640;10.050;2023-06-14T10:26:18;4.43;;;4.43;;
23573;SDS011;11965;53.640;10.050;2023-06-14T10:28:59;4.67;;;4.67;;
23573;SDS011;11965;53.640;10.050;2023-06-14T10:31:40;4.57;;;4.57;;
23573;SDS011;11965;53.640;10.050;2023-06-14T10:34:09;4.65;;;4.65;;
23573;SDS011;11965;53.640;10.050;2023-06-14T10:36:36;4.78;;;4.78;;
23573;SDS011;11965;53.640;10.050;2023-06-14T10:39:04;4.46;;;4.46;;
23573;SDS011;11965;53.640;10.050;2023-06-14T10:41:36;4.86;;;4.86;;
23573;SDS011;11965;53.640;10.050;2023-06-14T10:47:07;4.64;;;4.64;;
23573;SDS011;11965;53.640;10.050;2023-06-14T10:49:37;4.79;;;4.79;;
23573;SDS011;11965;53.640;10.050;2023-06-14T10:52:11;4.48;;;4.48;;
23573;SDS011;11965;53.640;10.050;2023-06-14T10:54:55;4.71;;;4.71;;
23573;SDS011;11965;53.640;10.050;2023-06-14T10:57:24;4.48;;;4.48;;
23573;SDS011;11965;53.640;10.050;2023-06-14T10:59:51;4.36;;;4.36;;
23573;SDS011;11965;53.640;10.050;2023-06-14T11:02:24;4.78;;;4.78;;
23573;SDS011;11965;53.640;10.050;2023-06-14T11:05:23;4.65;;;4.65;;
23573;SDS011;11965;53.640;10.050;2023-06-14T11:07:58;4.67;;;4.67;;
23573;SDS011;11965;53.640;10.050;2023-06-14T11:10:44;4.26;;;4.26;;
23573;SDS011;11965;53.640;10.050;2023-06-14T11:13:13;4.51;;;4.51;;
23573;SDS011;11965;53.640;10.050;2023-06-14T11:15:44;4.36;;;4.36;;
23573;SDS011;11965;53.640;10.050;2023-06-14T11:18:13;4.56;;;4.56;;
23573;SDS011;11965;53.640;10.050;2023-06-14T11:20:42;4.40;;;4.40;;
23573;SDS011;11965;53.640;10.050;2023-06-14T11:23:09;4.17;;;4.17;;
23573;SDS011;11965;53.640;10.050;2023-06-14T11:25:35;4.14;;;4.14;;
23573;SDS011;11965;53.640;10.050;2023-06-14T11:28:02;4.27;;;4.27;;
23573;SDS011;11965;53.640;10.050;2023-06-14T11:30:31;4.39;;;4.39;;
23573;SDS011;11965;53.640;10.050;2023-06-14T11:32:58;4.50;;;4.50;;
23573;SDS011;11965;53.640;10.050;2023-06-14T11:35:25;4.29;;;4.29;;
23573;SDS011;11965;53.640;10.050;2023-06-14T11:37:53;4.24;;;4.24;;
23573;SDS011;11965;53.640;10.050;2023-06-14T11:40:23;4.39;;;4.39;;
23573;SDS011;11965;53.640;10.050;2023-06-14T11:42:54;4.06;;;4.06;;
23573;SDS011;11965;53.640;10.050;2023-06-14T11:45:26;4.55;;;4.55;;
23573;SDS011;11965;53.640;10.050;2023-06-14T11:47:55;4.31;;;4.31;;
23573;SDS011;11965;53.640;10.050;2023-06-14T11:50:23;4.35;;;4.35;;
23573;SDS011;11965;53.640;10.050;2023-06-14T11:52:54;4.11;;;4.11;;
23573;SDS011;11965;53.640;10.050;2023-06-14T11:55:22;4.18;;;4.18;;
23573;SDS011;11965;53.640;10.050;2023-06-14T11:57:50;4.33;;;4.33;;
23573;SDS011;11965;53.640;10.050;2023-06-14T12:00:18;3.99;;;3.99;;
23573;SDS011;11965;53.640;10.050;2023-06-14T12:02:52;3.82;;;3.82;;
23573;SDS011;11965;53.640;10.050;2023-06-14T12:05:22;4.37;;;4.37;;
23573;SDS011;11965;53.640;10.050;2023-06-14T12:07:57;4.51;;;4.51;;
23573;SDS011;11965;53.640;10.050;2023-06-14T12:10:27;4.34;;;4.34;;
23573;SDS011;11965;53.640;10.050;2023-06-14T12:12:58;4.52;;;4.52;;
23573;SDS011;11965;53.640;10.050;2023-06-14T12:15:27;4.29;;;4.29;;
23573;SDS011;11965;53.640;10.050;2023-06-14T12:17:55;4.12;;;4.12;;
23573;SDS011;11965;53.640;10.050;2023-06-14T12:20:28;4.35;;;4.35;;
23573;SDS011;11965;53.640;10.050;2023-06-14T12:22:56;4.45;;;4.45;;
23573;SDS011;11965;53.640;10.050;2023-06-14T12:25:26;4.17;;;4.17;;
23573;SDS011;11965;53.640;10.050;2023-06-14T12:27:56;4.17;;;4.17;;
23573;SDS011;11965;53.640;10.050;2023-06-14T12:30:23;4.25;;;4.25;;
23573;SDS011;11965;53.640;10.050;2023-06-14T12:32:50;4.25;;;4.25;;
23573;SDS011;11965;53.640;10.050;2023-06-14T12:35:17;4.43;;;4.43;;
23573;SDS011;11965;53.640;10.050;2023-06-14T12:37:46;3.95;;;3.95;;
23573;SDS011;11965;53.640;10.050;2023-06-14T12:40:13;3.99;;;3.99;;
23573;SDS011;11965;53.640;10.050;2023-06-14T12:42:40;3.91;;;3.91;;
23573;SDS011;11965;53.640;10.050;2023-06-14T12:45:08;4.17;;;4.17;;
23573;SDS011;11965;53.640;10.050;2023-06-14T12:47:35;4.48;;;4.48;;
23573;SDS011;11965;53.640;10.050;2023-06-14T12:50:02;3.95;;;3.95;;
23573;SDS011;11965;53.640;10.050;2023-06-14T12:52:30;4.19;;;4.19;;
23573;SDS011;11965;53.640;10.050;2023-06-14T12:54:58;4.30;;;4.30;;
23573;SDS011;11965;53.640;10.050;2023-06-14T12:57:25;4.48;;;4.48;;
23573;SDS011;11965;53.640;10.050;2023-06-14T12:59:52;4.27;;;4.27;;
23573;SDS011;11965;53.640;10.050;2023-06-14T13:02:19;4.26;;;4.26;;
23573;SDS011;11965;53.640;10.050;2023-06-14T13:04:47;4.33;;;4.33;;
23573;SDS011;11965;53.640;10.050;2023-06-14T13:07:14;4.27;;;4.27;;
23573;SDS011;11965;53.640;10.050;2023-06-14T13:09:42;4.32;;;4.32;;
23573;SDS011;11965;53.640;10.050;2023-06-14T13:12:11;4.31;;;4.31;;
23573;SDS011;11965;53.640;10.050;2023-06-14T13:14:38;4.13;;;4.13;;
23573;SDS011;11965;53.640;10.050;2023-06-14T13:17:06;4.35;;;4.35;;
23573;SDS011;11965;53.640;10.050;2023-06-14T13:19:34;4.00;;;4.00;;
23573;SDS011;11965;53.640;10.050;2023-06-14T13:22:01;4.12;;;4.12;;
23573;SDS011;11965;53.640;10.050;2023-06-14T13:24:29;3.94;;;3.94;;
23573;SDS011;11965;53.640;10.050;2023-06-14T13:26:56;4.05;;;4.05;;
23573;SDS011;11965;53.640;10.050;2023-06-14T13:29:25;3.87;;;3.87;;
23573;SDS011;11965;53.640;10.050;2023-06-14T13:31:53;3.87;;;3.87;;
23573;SDS011;11965;53.640;10.050;2023-06-14T13:34:20;3.74;;;3.74;;
23573;SDS011;11965;53.640;10.050;2023-06-14T13:36:48;4.10;;;4.10;;
23573;SDS011;11965;53.640;10.050;2023-06-14T13:39:15;3.70;;;3.70;;
23573;SDS011;11965;53.640;10.050;2023-06-14T13:41:42;4.08;;;4.08;;
23573;SDS011;11965;53.640;10.050;2023-06-14T13:44:09;4.19;;;4.19;;
23573;SDS011;11965;53.640;10.050;2023-06-14T13:46:40;3.90;;;3.90;;
23573;SDS011;11965;53.640;10.050;2023-06-14T13:49:08;4.26;;;4.26;;
23573;SDS011;11965;53.640;10.050;2023-06-14T13:51:35;4.07;;;4.07;;
23573;SDS011;11965;53.640;10.050;2023-06-14T13:54:02;4.14;;;4.14;;
23573;SDS011;11965;53.640;10.050;2023-06-14T13:56:29;3.72;;;3.72;;
23573;SDS011;11965;53.640;10.050;2023-06-14T13:58:56;3.77;;;3.77;;
23573;SDS011;11965;53.640;10.050;2023-06-14T14:01:23;3.80;;;3.80;;
23573;SDS011;11965;53.640;10.050;2023-06-14T14:03:53;3.62;;;3.62;;
23573;SDS011;11965;53.640;10.050;2023-06-14T14:06:20;3.88;;;3.88;;
23573;SDS011;11965;53.640;10.050;2023-06-14T14:08:47;3.78;;;3.78;;
23573;SDS011;11965;53.640;10.050;2023-06-14T14:11:13;3.70;;;3.70;;
23573;SDS011;11965;53.640;10.050;2023-06-14T14:13:41;3.71;;;3.71;;
23573;SDS011;11965;53.640;10.050;2023-06-14T14:16:08;3.75;;;3.75;;
23573;SDS011;11965;53.640;10.050;2023-06-14T14:18:35;3.78;;;3.78;;
23573;SDS011;11965;53.640;10.050;2023-06-14T14:21:04;3.75;;;3.75;;
23573;SDS011;11965;53.640;10.050;2023-06-14T14:23:31;3.85;;;3.85;;
23573;SDS011;11965;53.640;10.050;2023-06-14T14:25:58;3.87;;;3.87;;
23573;SDS011;11965;53.640;10.050;2023-06-14T14:28:26;3.89;;;3.89;;
23573;SDS011;11965;53.640;10.050;2023-06-14T14:30:53;3.60;;;3.60;;
23573;SDS011;11965;53.640;10.050;2023-06-14T14:33:20;3.82;;;3.82;;
23573;SDS011;11965;53.640;10.050;2023-06-14T14:35:47;3.76;;;3.76;;
23573;SDS011;11965;53.640;10.050;2023-06-14T14:38:15;3.89;;;3.89;;
23573;SDS011;11965;53.640;10.050;2023-06-14T14:40:42;3.79;;;3.79;;
23573;SDS011;11965;53.640;10.050;2023-06-14T14:43:10;3.95;;;3.95;;
23573;SDS011;11965;53.640;10.050;2023-06-14T14:45:37;3.99;;;3.99;;